Buoy 47584

sailwx.info

Track history (hours):
 
Tides and Currents Weather Stations Pressure Air Temp Water Temp Dewpoint Dewpoint Depression Visibility Wind Speed Wind Dir Waves Ship Positions

Drifting buoy 47584

Last reported at 2018-Feb-26 02:07 UTC. Time now 2018-Feb-26 03:38 UTC.
Position N 29°16' W 021°23'.

Water temperature 19.1 ° C

Date/timePositionNaut miles runAvg speedWind from/ knotsBaromVisibWave heightAir tempDewpointWater temp
2018-Feb-26 02:07N 29°16' W 021°23'0 0.0 19.1
2018-Feb-26 02:00N 29°16' W 021°23'0 0.0 19.1
2018-Feb-26 01:05N 29°16' W 021°23'0 0.0 19.1
2018-Feb-26 01:00N 29°16' W 021°23'1 0.9 19.1
2018-Feb-26 00:04N 29°17' W 021°23'0 0.0 19.1
2018-Feb-26 00:00N 29°17' W 021°23'0 0.0 19.1
2018-Feb-25 23:06N 29°17' W 021°23'0 0.0 19.1
2018-Feb-25 23:00N 29°17' W 021°23'1 0.6 19.1
2018-Feb-25 22:05N 29°17' W 021°24'0 0.0 19.0
2018-Feb-25 22:00N 29°17' W 021°24'1 0.6 19.0
2018-Feb-25 21:04N 29°17' W 021°24'0 0.0 19.0
2018-Feb-25 21:00N 29°17' W 021°24'1 0.6 19.0
2018-Feb-25 20:04N 29°17' W 021°25'0 0.0 19.0
2018-Feb-25 20:00N 29°17' W 021°25'1 0.6 19.0
2018-Feb-25 19:07N 29°17' W 021°25'0 0.0 19.0
2018-Feb-25 19:00N 29°17' W 021°25'1 0.9 19.0
2018-Feb-25 18:05N 29°18' W 021°26'0 0.0 19.0
2018-Feb-25 18:00N 29°18' W 021°26'1 0.6 19.0
2018-Feb-25 17:04N 29°18' W 021°26'0 0.0 19.0
2018-Feb-25 17:00N 29°18' W 021°26'1 0.9 19.0
2018-Feb-25 16:07N 29°19' W 021°27'0 0.0 19.1
2018-Feb-25 16:00N 29°19' W 021°27'1 0.9 19.1
2018-Feb-25 15:05N 29°19' W 021°28'0 0.0 19.0
2018-Feb-25 15:00N 29°19' W 021°28'1 0.9 19.0
2018-Feb-25 14:05N 29°20' W 021°28'0 0.0 19.0
2018-Feb-25 14:00N 29°20' W 021°28'2 0.7 19.0
2018-Feb-25 11:05N 29°22' W 021°29'0 0.0 19.0
2018-Feb-25 11:00N 29°22' W 021°29'1 0.6 19.0
2018-Feb-25 10:00N 29°22' W 021°29'1 0.9 19.0
2018-Feb-25 09:06N 29°23' W 021°30'0 0.0 19.0
2018-Feb-25 09:00N 29°23' W 021°30'0 0.0 19.0
2018-Feb-25 08:05N 29°23' W 021°30'0 0.0 19.0
2018-Feb-25 08:00N 29°23' W 021°30'1 0.9 19.0
2018-Feb-25 07:05N 29°23' W 021°31'0 0.0 19.0
2018-Feb-25 07:00N 29°23' W 021°31'1 0.5 19.0
2018-Feb-25 06:01N 29°23' W 021°31'131.4 19.0
2018-Feb-25 06:00N 29°23' W 021°32'1 0.9 19.0
2018-Feb-25 05:05N 29°24' W 021°32'0 0.0 19.1
2018-Feb-25 05:00N 29°24' W 021°32'1 0.5 19.1
2018-Feb-25 04:00N 29°24' W 021°33'1 1.0 19.1
2018-Feb-25 03:00N 29°24' W 021°34'1 0.7 19.1
2018-Feb-25 01:04N 29°23' W 021°35'0 0.0 19.1
2018-Feb-25 01:00N 29°23' W 021°35'1 0.9 19.1
2018-Feb-25 00:05N 29°22' W 021°35'1 7.2 19.1
2018-Feb-25 00:00N 29°23' W 021°35'1 0.8 19.1
2018-Feb-24 23:00N 29°22' W 021°36'1 0.7 19.1
2018-Feb-24 22:05N 29°22' W 021°36'0 0.0 19.1
2018-Feb-24 22:00N 29°22' W 021°36'1 0.8 19.1
2018-Feb-24 21:00N 29°21' W 021°37'1 1.3 19.1
2018-Feb-24 20:05N 29°20' W 021°38'1 9.6 19.1
2018-Feb-24 20:00N 29°21' W 021°37'5 0.6 19.1
2018-Feb-24 12:05N 29°17' W 021°41'0 0.0 19.1
2018-Feb-24 12:00N 29°17' W 021°41'0 0.0 19.1
2018-Feb-24 11:05N 29°17' W 021°41'0 0.0 19.0
2018-Feb-24 11:00N 29°17' W 021°41'1 0.6 19.0
2018-Feb-24 10:04N 29°17' W 021°41'0 0.0 19.0
2018-Feb-24 10:00N 29°17' W 021°41'0 0.0 19.0
2018-Feb-24 08:05N 29°17' W 021°41'0 0.0 19.0
2018-Feb-24 08:00N 29°17' W 021°41'1 0.6 19.0
2018-Feb-24 07:06N 29°17' W 021°41'0 0.0 19.0
2018-Feb-24 07:00N 29°17' W 021°41'0 0.0 19.0
2018-Feb-24 06:04N 29°17' W 021°41'0 0.0 19.0
2018-Feb-24 06:00N 29°17' W 021°41'0 0.0 19.0
2018-Feb-24 05:04N 29°17' W 021°41'0 0.0 19.0
2018-Feb-24 05:00N 29°17' W 021°41'1 0.6 19.0
2018-Feb-24 04:04N 29°17' W 021°42'0 0.0 19.0
2018-Feb-24 04:00N 29°17' W 021°42'0 0.0 19.0
2018-Feb-24 03:05N 29°17' W 021°42'0 0.0 19.0
2018-Feb-24 03:00N 29°17' W 021°42'1 0.6 19.0
2018-Feb-24 02:04N 29°16' W 021°42'0 0.0 19.0
2018-Feb-24 02:00N 29°16' W 021°42'0 0.0 19.0
2018-Feb-24 01:04N 29°16' W 021°42'0 0.0
2018-Feb-24 01:00N 29°16' W 021°42'1 0.6
2018-Feb-24 00:04N 29°16' W 021°41'0 0.0
2018-Feb-24 00:00N 29°16' W 021°41'0 0.0
2018-Feb-23 23:00N 29°16' W 021°41'1 0.6 19.1
2018-Feb-23 22:05N 29°16' W 021°41'0 0.0 19.1
2018-Feb-23 22:00N 29°16' W 021°41'1 0.6 19.1
2018-Feb-23 21:05N 29°16' W 021°40'0 0.0 19.1
2018-Feb-23 21:00N 29°16' W 021°40'1 0.6 19.2
2018-Feb-23 20:04N 29°16' W 021°40'0 0.0 19.2
2018-Feb-23 20:00N 29°16' W 021°40'1 0.6 19.2
2018-Feb-23 19:07N 29°16' W 021°39'0 0.0 19.3
2018-Feb-23 19:00N 29°16' W 021°39'1 0.6 19.3
2018-Feb-23 18:05N 29°16' W 021°38'0 0.0 19.4
2018-Feb-23 18:00N 29°16' W 021°38'0 0.0 19.4
2018-Feb-23 17:05N 29°16' W 021°38'0 0.0 19.6
2018-Feb-23 17:00N 29°16' W 021°38'1 0.8 19.6
2018-Feb-23 16:00N 29°17' W 021°38'0 0.0 19.6
2018-Feb-23 15:04N 29°17' W 021°38'0 0.0 19.5
2018-Feb-23 15:00N 29°17' W 021°38'0 0.0 19.5
2018-Feb-23 14:05N 29°17' W 021°38'0 0.0 19.4
2018-Feb-23 14:00N 29°17' W 021°38'1 0.9 19.4
2018-Feb-23 13:05N 29°17' W 021°37'0 0.0 19.2
2018-Feb-23 13:00N 29°17' W 021°37'0 0.0 19.2
2018-Feb-23 12:00N 29°17' W 021°37'1 0.6 19.1
2018-Feb-23 11:08N 29°17' W 021°37'0 0.0 19.0
2018-Feb-23 11:00N 29°17' W 021°37'1 0.6 19.0
2018-Feb-23 10:04N 29°17' W 021°37'1 9.0 18.9
2018-Feb-23 10:00N 29°17' W 021°37'0 0.0 19.0
2018-Feb-23 09:00N 29°17' W 021°37'1 0.6 18.9
2018-Feb-23 08:08N 29°17' W 021°36'0 0.0 18.9
2018-Feb-23 08:00N 29°17' W 021°36'0 0.0 18.9
2018-Feb-23 07:00N 29°17' W 021°36'1 0.6 18.9
2018-Feb-23 06:04N 29°17' W 021°36'0 0.0 18.9
2018-Feb-23 06:00N 29°17' W 021°36'1 0.6 18.9
2018-Feb-23 05:04N 29°17' W 021°35'0 0.0 18.9
2018-Feb-23 05:00N 29°17' W 021°35'1 0.7 18.9
2018-Feb-23 04:08N 29°16' W 021°35'0 0.0 18.9
2018-Feb-23 04:00N 29°16' W 021°35'0 0.0 18.9
2018-Feb-23 03:05N 29°16' W 021°35'0 0.0 19.0
2018-Feb-23 03:00N 29°16' W 021°35'1 0.7 19.0
2018-Feb-23 02:05N 29°16' W 021°35'0 0.0 18.9
2018-Feb-23 02:00N 29°16' W 021°35'1 0.6 19.0
2018-Feb-23 01:04N 29°16' W 021°36'0 0.0 18.9
2018-Feb-23 01:00N 29°16' W 021°36'1 0.6 19.0
2018-Feb-23 00:04N 29°15' W 021°36'0 0.0 18.9
2018-Feb-23 00:00N 29°15' W 021°36'1 0.7 19.0
2018-Feb-22 23:05N 29°14' W 021°36'0 0.0 19.0
2018-Feb-22 23:00N 29°14' W 021°36'0 0.0 19.0
2018-Feb-22 22:05N 29°14' W 021°36'0 0.0 18.9
2018-Feb-22 22:00N 29°14' W 021°36'1 0.6 19.0
2018-Feb-22 21:04N 29°14' W 021°36'0 0.0 18.9
2018-Feb-22 21:00N 29°14' W 021°36'1 0.6 18.9
2018-Feb-22 20:04N 29°13' W 021°36'0 0.0 19.0
2018-Feb-22 20:00N 29°13' W 021°36'1 0.6 19.0
2018-Feb-22 19:05N 29°13' W 021°37'0 0.0 19.1
2018-Feb-22 19:00N 29°13' W 021°37'1 0.7 19.1
2018-Feb-22 18:05N 29°13' W 021°37'0 0.0 19.1
2018-Feb-22 18:00N 29°13' W 021°37'1 0.6 19.1
2018-Feb-22 17:00N 29°12' W 021°37'1 0.6 19.0
2018-Feb-22 16:00N 29°11' W 021°37'1 0.9 19.0
2018-Feb-22 15:04N 29°11' W 021°37'0 0.0 19.0
2018-Feb-22 15:00N 29°11' W 021°37'1 1.4 19.0
2018-Feb-22 14:08N 29°10' W 021°37'0 0.0 19.0
2018-Feb-22 14:00N 29°10' W 021°37'1 0.7 19.0
2018-Feb-22 13:05N 29°09' W 021°37'0 0.0 19.0
2018-Feb-22 13:00N 29°09' W 021°37'1 0.6 19.0
2018-Feb-22 12:00N 29°08' W 021°37'1 0.7 19.0
2018-Feb-22 11:05N 29°08' W 021°37'0 0.0 19.0
2018-Feb-22 11:00N 29°08' W 021°37'0 0.0 19.0
2018-Feb-22 10:04N 29°08' W 021°37'0 0.0 19.0
2018-Feb-22 10:00N 29°08' W 021°37'1 0.6 19.0
2018-Feb-22 09:00N 29°07' W 021°37'1 0.7 19.1
2018-Feb-22 08:05N 29°07' W 021°37'0 0.0 19.0
2018-Feb-22 08:00N 29°07' W 021°37'0 0.0 19.0
2018-Feb-22 07:05N 29°07' W 021°37'0 0.0 19.0
2018-Feb-22 07:00N 29°07' W 021°37'1 0.7 19.0
2018-Feb-22 06:05N 29°06' W 021°37'0 0.0 19.1
2018-Feb-22 06:00N 29°06' W 021°37'1 0.6 19.1
2018-Feb-22 05:04N 29°05' W 021°37'1 7.9 19.1
2018-Feb-22 05:00N 29°05' W 021°38'1 0.7 19.1
2018-Feb-22 04:06N 29°05' W 021°38'1 6.0 19.1
2018-Feb-22 04:00N 29°05' W 021°38'1 0.7 19.2
2018-Feb-22 03:08N 29°05' W 021°38'0 0.0 19.1
2018-Feb-22 03:00N 29°05' W 021°38'8 0.2 19.1
2018-Feb-20 14:05N 29°05' W 021°28'0 0.0 19.2
2018-Feb-20 14:00N 29°05' W 021°28'0 0.0 19.2
2018-Feb-20 13:08N 29°05' W 021°28'0 0.0 19.3
2018-Feb-20 13:00N 29°05' W 021°28'1 0.6 19.3
2018-Feb-20 12:05N 29°05' W 021°28'0 0.0 19.2
2018-Feb-20 12:00N 29°05' W 021°28'0 0.0 19.2
2018-Feb-20 11:00N 29°05' W 021°28'1 0.8 19.1
2018-Feb-20 10:00N 29°05' W 021°27'0 0.0 19.1
2018-Feb-20 09:05N 29°05' W 021°27'0 0.0 19.1
2018-Feb-20 09:00N 29°05' W 021°27'1 0.9 19.1
2018-Feb-20 08:05N 29°06' W 021°26'0 0.0 19.3
2018-Feb-20 08:00N 29°06' W 021°26'0 0.0 19.3
2018-Feb-20 07:05N 29°06' W 021°26'0 0.0 19.3
2018-Feb-20 07:00N 29°06' W 021°26'1 0.6 19.3
2018-Feb-20 06:05N 29°06' W 021°26'0 0.0 19.3
2018-Feb-20 06:00N 29°06' W 021°26'1 0.6 19.3
2018-Feb-20 05:04N 29°07' W 021°26'0 0.0 19.3
2018-Feb-20 05:00N 29°07' W 021°26'1 0.6 19.3
2018-Feb-20 04:05N 29°07' W 021°25'0 0.0 19.3
2018-Feb-20 04:00N 29°07' W 021°25'1 0.6 19.3
2018-Feb-20 03:04N 29°07' W 021°25'0 0.0 19.4
2018-Feb-20 03:00N 29°07' W 021°25'1 0.7 19.4
2018-Feb-20 02:05N 29°07' W 021°25'0 0.0 19.4
2018-Feb-20 02:00N 29°07' W 021°25'1 0.6 19.4
2018-Feb-20 01:05N 29°07' W 021°24'0 0.0 19.4
2018-Feb-20 01:00N 29°07' W 021°24'1 0.6 19.4
2018-Feb-20 00:05N 29°07' W 021°23'1 7.2 19.4
2018-Feb-20 00:00N 29°08' W 021°23'1 0.5 19.4
2018-Feb-19 23:02N 29°08' W 021°23'0 0.0 19.4
2018-Feb-19 23:00N 29°08' W 021°23'1 0.6 19.4
2018-Feb-19 22:04N 29°08' W 021°22'0 0.0 19.4
2018-Feb-19 22:00N 29°08' W 021°22'1 0.6 19.4
2018-Feb-19 21:04N 29°08' W 021°22'0 0.0 19.4
2018-Feb-19 21:00N 29°08' W 021°22'1 0.6 19.4
2018-Feb-19 20:04N 29°08' W 021°22'0 0.0 19.4
2018-Feb-19 20:00N 29°08' W 021°22'1 0.9 19.4
2018-Feb-19 19:04N 29°09' W 021°21'0 0.0 19.4
2018-Feb-19 19:00N 29°09' W 021°21'1 0.6 19.4
2018-Feb-19 18:05N 29°09' W 021°20'0 0.0 19.4
2018-Feb-19 18:00N 29°09' W 021°20'1 0.6 19.4
2018-Feb-19 17:04N 29°09' W 021°20'1 9.0 19.4
2018-Feb-19 17:00N 29°10' W 021°20'1 0.6 19.4
2018-Feb-19 16:04N 29°10' W 021°19'0 0.0 19.4
2018-Feb-19 16:00N 29°10' W 021°19'1 0.6 19.4
2018-Feb-19 15:05N 29°10' W 021°19'0 0.0 19.4
2018-Feb-19 15:00N 29°10' W 021°19'1 0.6 19.4
2018-Feb-19 14:05N 29°10' W 021°18'0 0.0 19.4
2018-Feb-19 14:00N 29°10' W 021°18'1 0.7 19.4
2018-Feb-19 13:05N 29°10' W 021°18'0 0.0 19.3
2018-Feb-19 13:00N 29°10' W 021°18'0 0.0 19.3
2018-Feb-19 12:05N 29°10' W 021°18'1 0.5 19.2
2018-Feb-19 11:00N 29°10' W 021°17'0 0.0 19.2
2018-Feb-19 10:05N 29°10' W 021°17'0 0.0 19.1
2018-Feb-19 10:00N 29°10' W 021°17'0 0.0 19.1
2018-Feb-19 09:07N 29°10' W 021°17'0 0.0 19.1
2018-Feb-19 09:00N 29°10' W 021°17'0 0.0 19.1
2018-Feb-19 08:05N 29°10' W 021°17'0 0.0 19.0
2018-Feb-19 08:00N 29°10' W 021°17'1 0.6 19.0
2018-Feb-19 07:06N 29°10' W 021°17'0 0.0 19.0
2018-Feb-19 07:00N 29°10' W 021°17'0 0.0 19.0
2018-Feb-19 06:04N 29°10' W 021°17'0 0.0 19.0
2018-Feb-19 06:00N 29°10' W 021°17'1 0.6 19.0
2018-Feb-19 05:04N 29°10' W 021°16'0 0.0 19.0
2018-Feb-19 05:00N 29°10' W 021°16'0 0.0 19.0
2018-Feb-19 04:00N 29°10' W 021°16'1 0.6 19.0
2018-Feb-19 03:05N 29°10' W 021°16'0 0.0 19.0
2018-Feb-19 03:00N 29°10' W 021°16'0 0.0 19.0
2018-Feb-19 02:05N 29°10' W 021°16'0 0.0 19.0
2018-Feb-19 02:00N 29°10' W 021°16'1 0.6 19.0
2018-Feb-19 01:05N 29°10' W 021°15'0 0.0 19.0
2018-Feb-19 01:00N 29°10' W 021°15'0 0.0 19.0
2018-Feb-19 00:04N 29°10' W 021°15'0 0.0 19.0
2018-Feb-19 00:00N 29°10' W 021°15'1 0.7 19.0
2018-Feb-18 23:07N 29°11' W 021°15'0 0.0 19.0
2018-Feb-18 23:00N 29°11' W 021°15'0 0.0 19.0
2018-Feb-18 22:05N 29°11' W 021°15'0 0.0 19.1
2018-Feb-18 22:00N 29°11' W 021°15'1 0.6 19.1
2018-Feb-18 21:00N 29°11' W 021°15'0 0.0 19.1
2018-Feb-18 20:05N 29°11' W 021°15'1 6.3 19.1
2018-Feb-18 20:00N 29°11' W 021°16'1 0.6 19.1
2018-Feb-18 19:00N 29°12' W 021°16'1 0.6 19.1
2018-Feb-18 18:01N 29°13' W 021°16'0 0.0 19.2
2018-Feb-18 18:00N 29°13' W 021°16'0 0.0 19.2
2018-Feb-18 17:00N 29°13' W 021°16'0 0.0 19.2
2018-Feb-18 16:04N 29°13' W 021°16'0 0.0 19.2
2018-Feb-18 16:00N 29°13' W 021°16'0 0.0 19.2
2018-Feb-18 15:04N 29°13' W 021°16'0 0.0 19.2
2018-Feb-18 15:00N 29°13' W 021°16'0 0.0 19.2
2018-Feb-18 14:06N 29°13' W 021°16'0 0.0 19.2
2018-Feb-18 14:00N 29°13' W 021°16'1 0.7 19.2
2018-Feb-18 13:05N 29°13' W 021°16'0 0.0 19.1
2018-Feb-18 13:00N 29°13' W 021°16'1 0.6 19.1
2018-Feb-18 12:05N 29°13' W 021°15'0 0.0 19.1
2018-Feb-18 12:00N 29°13' W 021°15'0 0.0 19.1
2018-Feb-18 11:04N 29°13' W 021°15'0 0.0 19.0
2018-Feb-18 11:00N 29°13' W 021°15'0 0.0 19.0
2018-Feb-18 10:04N 29°13' W 021°15'0 0.0 19.0
2018-Feb-18 10:00N 29°13' W 021°15'1 0.6 19.0
2018-Feb-18 09:04N 29°13' W 021°14'1 9.0 19.0
2018-Feb-18 09:00N 29°14' W 021°14'0 0.0 19.0
2018-Feb-18 08:02N 29°14' W 021°14'0 0.0 19.0
2018-Feb-18 08:00N 29°14' W 021°14'0 0.0 19.0
2018-Feb-18 07:04N 29°14' W 021°14'1 9.0 19.0
2018-Feb-18 07:00N 29°14' W 021°14'0 0.0 19.0
2018-Feb-18 06:05N 29°14' W 021°14'0 0.0 19.0
2018-Feb-18 06:00N 29°14' W 021°14'0 0.0 19.0
2018-Feb-18 05:05N 29°14' W 021°14'0 0.0 19.0
2018-Feb-18 05:00N 29°14' W 021°14'0 0.0 19.0
2018-Feb-18 04:06N 29°14' W 021°14'0 0.0 19.0
2018-Feb-18 04:00N 29°14' W 021°14'1 0.7 19.0
2018-Feb-18 03:05N 29°15' W 021°14'0 0.0 19.1
2018-Feb-18 03:00N 29°15' W 021°14'0 0.0 19.1
2018-Feb-18 02:04N 29°15' W 021°14'0 0.0 19.1
2018-Feb-18 02:00N 29°15' W 021°14'0 0.0 19.1
2018-Feb-18 01:04N 29°15' W 021°14'0 0.0 19.1
2018-Feb-18 01:00N 29°15' W 021°14'1 0.6 19.1
2018-Feb-18 00:04N 29°15' W 021°14'1 7.9 19.1
2018-Feb-18 00:00N 29°15' W 021°14'1 0.9 19.1
2018-Feb-17 23:05N 29°16' W 021°14'0 0.0 19.1
2018-Feb-17 23:00N 29°16' W 021°14'0 0.0 19.1
2018-Feb-17 22:04N 29°16' W 021°14'0 0.0 19.1
2018-Feb-17 22:00N 29°16' W 021°14'0 0.0 19.1
2018-Feb-17 21:05N 29°16' W 021°14'0 0.0 19.2
2018-Feb-17 21:00N 29°16' W 021°14'0 0.0 19.2
2018-Feb-17 20:04N 29°16' W 021°14'1 9.0 19.2
2018-Feb-17 20:00N 29°16' W 021°14'0 0.0 19.2
2018-Feb-17 19:05N 29°16' W 021°14'0 0.0 19.2
2018-Feb-17 19:00N 29°16' W 021°14'1 0.7 19.2
2018-Feb-17 18:09N 29°16' W 021°14'1 0.5 19.3
2018-Feb-17 17:04N 29°16' W 021°13'0 0.0 19.3
2018-Feb-17 17:00N 29°16' W 021°13'0 0.0 19.3
2018-Feb-17 16:04N 29°16' W 021°13'0 0.0 19.3
2018-Feb-17 16:00N 29°16' W 021°13'1 0.6 19.3
2018-Feb-17 15:08N 29°16' W 021°13'0 0.0 19.2
2018-Feb-17 15:00N 29°16' W 021°13'1 0.6 19.2
2018-Feb-17 14:04N 29°15' W 021°13'0 0.0 19.1
2018-Feb-17 14:00N 29°15' W 021°13'1 0.5 19.1
2018-Feb-17 13:00N 29°15' W 021°12'1 0.5 19.1
2018-Feb-17 12:00N 29°15' W 021°11'1 0.7 19.0
2018-Feb-17 11:06N 29°14' W 021°11'0 0.0 19.0
2018-Feb-17 11:00N 29°14' W 021°11'1 0.6 19.0
2018-Feb-17 10:04N 29°14' W 021°11'0 0.0 19.0
2018-Feb-17 10:00N 29°14' W 021°11'0 0.0 19.0
2018-Feb-17 09:04N 29°14' W 021°11'0 0.0 19.0
2018-Feb-17 09:00N 29°14' W 021°11'0 0.0 19.0
2018-Feb-17 08:01N 29°14' W 021°11'0 0.0 18.9
2018-Feb-17 08:00N 29°14' W 021°11'1 0.6 19.0
2018-Feb-17 07:04N 29°15' W 021°11'0 0.0 19.0
2018-Feb-17 07:00N 29°15' W 021°11'1 0.6 19.0
2018-Feb-17 06:05N 29°15' W 021°10'1 6.3 19.1
2018-Feb-17 06:00N 29°15' W 021°11'1 0.5 19.1
2018-Feb-17 05:00N 29°15' W 021°10'0 0.0 19.1
2018-Feb-17 04:00N 29°15' W 021°10'1 0.9 19.2
2018-Feb-17 03:04N 29°14' W 021°10'1 9.0 19.2
2018-Feb-17 03:00N 29°15' W 021°10'1 0.6 19.2
2018-Feb-17 02:04N 29°14' W 021°10'0 0.0 19.2
2018-Feb-17 02:00N 29°14' W 021°10'1 0.5 19.2
2018-Feb-17 01:00N 29°14' W 021°09'0 0.0 19.2
2018-Feb-17 00:06N 29°14' W 021°09'0 0.0 19.2
2018-Feb-17 00:00N 29°14' W 021°09'0 0.0 19.2
2018-Feb-16 23:07N 29°14' W 021°09'0 0.0 19.2
2018-Feb-16 23:00N 29°14' W 021°09'1 0.6 19.3
2018-Feb-16 22:04N 29°14' W 021°08'0 0.0 19.3
2018-Feb-16 22:00N 29°14' W 021°08'0 0.0 19.3
2018-Feb-16 21:00N 29°14' W 021°08'1 0.5 19.4
2018-Feb-16 20:00N 29°14' W 021°08'0 0.0 19.4
2018-Feb-16 19:05N 29°14' W 021°08'0 0.0 19.4
2018-Feb-16 19:00N 29°14' W 021°08'1 0.9 19.4
2018-Feb-16 18:05N 29°15' W 021°07'0 0.0 19.4
2018-Feb-16 18:00N 29°15' W 021°07'0 0.0 19.4
2018-Feb-16 17:05N 29°15' W 021°07'0 0.0 19.4
2018-Feb-16 17:00N 29°15' W 021°07'1 0.6 19.4
2018-Feb-16 16:05N 29°15' W 021°07'0 0.0 19.4
2018-Feb-16 16:00N 29°15' W 021°07'1 0.6 19.4
2018-Feb-16 15:04N 29°15' W 021°06'0 0.0 19.4
2018-Feb-16 15:00N 29°15' W 021°06'1 0.7 19.4
2018-Feb-16 14:05N 29°14' W 021°06'1 7.2 19.4
2018-Feb-16 14:00N 29°15' W 021°06'1 0.9 19.4
2018-Feb-16 13:05N 29°14' W 021°05'0 0.0 19.4
2018-Feb-16 13:00N 29°14' W 021°05'0 0.0 19.4
2018-Feb-16 12:08N 29°14' W 021°05'0 0.0 19.3
2018-Feb-16 12:00N 29°14' W 021°05'1 0.5 19.3
2018-Feb-16 11:00N 29°14' W 021°05'0 0.0 19.2
2018-Feb-16 10:04N 29°14' W 021°05'0 0.0 19.2
2018-Feb-16 10:00N 29°14' W 021°05'1 0.5 19.2
2018-Feb-16 09:00N 29°14' W 021°04'0 0.0 19.2
2018-Feb-16 08:00N 29°14' W 021°04'1 0.6 19.2
2018-Feb-16 07:05N 29°14' W 021°04'1 7.2 19.2
2018-Feb-16 07:00N 29°15' W 021°04'0 0.0 19.2
2018-Feb-16 06:00N 29°15' W 021°04'1 0.6 19.2
2018-Feb-16 05:04N 29°15' W 021°03'0 0.0 19.2
2018-Feb-16 05:00N 29°15' W 021°03'0 0.0 19.2
2018-Feb-16 04:06N 29°15' W 021°03'0 0.0 19.2
2018-Feb-16 04:00N 29°15' W 021°03'1 0.6 19.2
2018-Feb-16 03:07N 29°15' W 021°02'0 0.0 19.2
2018-Feb-16 03:00N 29°15' W 021°02'   19.2
Track history (hours):
 
Tides and Currents Weather Stations Pressure Air Temp Water Temp Dewpoint Dewpoint Depression Visibility Wind Speed Wind Dir Waves Ship Positions

Drifting buoy 47584

Last reported at 2018-Feb-26 02:07 UTC. Time now 2018-Feb-26 03:38 UTC.
Position N 29°16' W 021°23'.

Water temperature 19.1 ° C

Date/timePositionNaut miles runAvg speedWind from/ knotsBaromVisibWave heightAir tempDewpointWater temp
2018-Feb-26 02:07N 29°16' W 021°23'0 0.0 19.1
2018-Feb-26 02:00N 29°16' W 021°23'0 0.0 19.1
2018-Feb-26 01:05N 29°16' W 021°23'0 0.0 19.1
2018-Feb-26 01:00N 29°16' W 021°23'1 0.9 19.1
2018-Feb-26 00:04N 29°17' W 021°23'0 0.0 19.1
2018-Feb-26 00:00N 29°17' W 021°23'0 0.0 19.1
2018-Feb-25 23:06N 29°17' W 021°23'0 0.0 19.1
2018-Feb-25 23:00N 29°17' W 021°23'1 0.6 19.1
2018-Feb-25 22:05N 29°17' W 021°24'0 0.0 19.0
2018-Feb-25 22:00N 29°17' W 021°24'1 0.6 19.0
2018-Feb-25 21:04N 29°17' W 021°24'0 0.0 19.0
2018-Feb-25 21:00N 29°17' W 021°24'1 0.6 19.0
2018-Feb-25 20:04N 29°17' W 021°25'0 0.0 19.0
2018-Feb-25 20:00N 29°17' W 021°25'1 0.6 19.0
2018-Feb-25 19:07N 29°17' W 021°25'0 0.0 19.0
2018-Feb-25 19:00N 29°17' W 021°25'1 0.9 19.0
2018-Feb-25 18:05N 29°18' W 021°26'0 0.0 19.0
2018-Feb-25 18:00N 29°18' W 021°26'1 0.6 19.0
2018-Feb-25 17:04N 29°18' W 021°26'0 0.0 19.0
2018-Feb-25 17:00N 29°18' W 021°26'1 0.9 19.0
2018-Feb-25 16:07N 29°19' W 021°27'0 0.0 19.1
2018-Feb-25 16:00N 29°19' W 021°27'1 0.9 19.1
2018-Feb-25 15:05N 29°19' W 021°28'0 0.0 19.0
2018-Feb-25 15:00N 29°19' W 021°28'1 0.9 19.0
2018-Feb-25 14:05N 29°20' W 021°28'0 0.0 19.0
2018-Feb-25 14:00N 29°20' W 021°28'2 0.7 19.0
2018-Feb-25 11:05N 29°22' W 021°29'0 0.0 19.0
2018-Feb-25 11:00N 29°22' W 021°29'1 0.6 19.0
2018-Feb-25 10:00N 29°22' W 021°29'1 0.9 19.0
2018-Feb-25 09:06N 29°23' W 021°30'0 0.0 19.0
2018-Feb-25 09:00N 29°23' W 021°30'0 0.0 19.0
2018-Feb-25 08:05N 29°23' W 021°30'0 0.0 19.0
2018-Feb-25 08:00N 29°23' W 021°30'1 0.9 19.0
2018-Feb-25 07:05N 29°23' W 021°31'0 0.0 19.0
2018-Feb-25 07:00N 29°23' W 021°31'1 0.5 19.0
2018-Feb-25 06:01N 29°23' W 021°31'131.4 19.0
2018-Feb-25 06:00N 29°23' W 021°32'1 0.9 19.0
2018-Feb-25 05:05N 29°24' W 021°32'0 0.0 19.1
2018-Feb-25 05:00N 29°24' W 021°32'1 0.5 19.1
2018-Feb-25 04:00N 29°24' W 021°33'1 1.0 19.1
2018-Feb-25 03:00N 29°24' W 021°34'1 0.7 19.1
2018-Feb-25 01:04N 29°23' W 021°35'0 0.0 19.1
2018-Feb-25 01:00N 29°23' W 021°35'1 0.9 19.1
2018-Feb-25 00:05N 29°22' W 021°35'1 7.2 19.1
2018-Feb-25 00:00N 29°23' W 021°35'1 0.8 19.1
2018-Feb-24 23:00N 29°22' W 021°36'1 0.7 19.1
2018-Feb-24 22:05N 29°22' W 021°36'0 0.0 19.1
2018-Feb-24 22:00N 29°22' W 021°36'1 0.8 19.1
2018-Feb-24 21:00N 29°21' W 021°37'1 1.3 19.1
2018-Feb-24 20:05N 29°20' W 021°38'1 9.6 19.1
2018-Feb-24 20:00N 29°21' W 021°37'5 0.6 19.1
2018-Feb-24 12:05N 29°17' W 021°41'0 0.0 19.1
2018-Feb-24 12:00N 29°17' W 021°41'0 0.0 19.1
2018-Feb-24 11:05N 29°17' W 021°41'0 0.0 19.0
2018-Feb-24 11:00N 29°17' W 021°41'1 0.6 19.0
2018-Feb-24 10:04N 29°17' W 021°41'0 0.0 19.0
2018-Feb-24 10:00N 29°17' W 021°41'0 0.0 19.0
2018-Feb-24 08:05N 29°17' W 021°41'0 0.0 19.0
2018-Feb-24 08:00N 29°17' W 021°41'1 0.6 19.0
2018-Feb-24 07:06N 29°17' W 021°41'0 0.0 19.0
2018-Feb-24 07:00N 29°17' W 021°41'0 0.0 19.0
2018-Feb-24 06:04N 29°17' W 021°41'0 0.0 19.0
2018-Feb-24 06:00N 29°17' W 021°41'0 0.0 19.0
2018-Feb-24 05:04N 29°17' W 021°41'0 0.0 19.0
2018-Feb-24 05:00N 29°17' W 021°41'1 0.6 19.0
2018-Feb-24 04:04N 29°17' W 021°42'0 0.0 19.0
2018-Feb-24 04:00N 29°17' W 021°42'0 0.0 19.0
2018-Feb-24 03:05N 29°17' W 021°42'0 0.0 19.0
2018-Feb-24 03:00N 29°17' W 021°42'1 0.6 19.0
2018-Feb-24 02:04N 29°16' W 021°42'0 0.0 19.0
2018-Feb-24 02:00N 29°16' W 021°42'0 0.0 19.0
2018-Feb-24 01:04N 29°16' W 021°42'0 0.0
2018-Feb-24 01:00N 29°16' W 021°42'1 0.6
2018-Feb-24 00:04N 29°16' W 021°41'0 0.0
2018-Feb-24 00:00N 29°16' W 021°41'0 0.0
2018-Feb-23 23:00N 29°16' W 021°41'1 0.6 19.1
2018-Feb-23 22:05N 29°16' W 021°41'0 0.0 19.1
2018-Feb-23 22:00N 29°16' W 021°41'1 0.6 19.1
2018-Feb-23 21:05N 29°16' W 021°40'0 0.0 19.1
2018-Feb-23 21:00N 29°16' W 021°40'1 0.6 19.2
2018-Feb-23 20:04N 29°16' W 021°40'0 0.0 19.2
2018-Feb-23 20:00N 29°16' W 021°40'1 0.6 19.2
2018-Feb-23 19:07N 29°16' W 021°39'0 0.0 19.3
2018-Feb-23 19:00N 29°16' W 021°39'1 0.6 19.3
2018-Feb-23 18:05N 29°16' W 021°38'0 0.0 19.4
2018-Feb-23 18:00N 29°16' W 021°38'0 0.0 19.4
2018-Feb-23 17:05N 29°16' W 021°38'0 0.0 19.6
2018-Feb-23 17:00N 29°16' W 021°38'1 0.8 19.6
2018-Feb-23 16:00N 29°17' W 021°38'0 0.0 19.6
2018-Feb-23 15:04N 29°17' W 021°38'0 0.0 19.5
2018-Feb-23 15:00N 29°17' W 021°38'0 0.0 19.5
2018-Feb-23 14:05N 29°17' W 021°38'0 0.0 19.4
2018-Feb-23 14:00N 29°17' W 021°38'1 0.9 19.4
2018-Feb-23 13:05N 29°17' W 021°37'0 0.0 19.2
2018-Feb-23 13:00N 29°17' W 021°37'0 0.0 19.2
2018-Feb-23 12:00N 29°17' W 021°37'1 0.6 19.1
2018-Feb-23 11:08N 29°17' W 021°37'0 0.0 19.0
2018-Feb-23 11:00N 29°17' W 021°37'1 0.6 19.0
2018-Feb-23 10:04N 29°17' W 021°37'1 9.0 18.9
2018-Feb-23 10:00N 29°17' W 021°37'0 0.0 19.0
2018-Feb-23 09:00N 29°17' W 021°37'1 0.6 18.9
2018-Feb-23 08:08N 29°17' W 021°36'0 0.0 18.9
2018-Feb-23 08:00N 29°17' W 021°36'0 0.0 18.9
2018-Feb-23 07:00N 29°17' W 021°36'1 0.6 18.9
2018-Feb-23 06:04N 29°17' W 021°36'0 0.0 18.9
2018-Feb-23 06:00N 29°17' W 021°36'1 0.6 18.9
2018-Feb-23 05:04N 29°17' W 021°35'0 0.0 18.9
2018-Feb-23 05:00N 29°17' W 021°35'1 0.7 18.9
2018-Feb-23 04:08N 29°16' W 021°35'0 0.0 18.9
2018-Feb-23 04:00N 29°16' W 021°35'0 0.0 18.9
2018-Feb-23 03:05N 29°16' W 021°35'0 0.0 19.0
2018-Feb-23 03:00N 29°16' W 021°35'1 0.7 19.0
2018-Feb-23 02:05N 29°16' W 021°35'0 0.0 18.9
2018-Feb-23 02:00N 29°16' W 021°35'1 0.6 19.0
2018-Feb-23 01:04N 29°16' W 021°36'0 0.0 18.9
2018-Feb-23 01:00N 29°16' W 021°36'1 0.6 19.0
2018-Feb-23 00:04N 29°15' W 021°36'0 0.0 18.9
2018-Feb-23 00:00N 29°15' W 021°36'1 0.7 19.0
2018-Feb-22 23:05N 29°14' W 021°36'0 0.0 19.0
2018-Feb-22 23:00N 29°14' W 021°36'0 0.0 19.0
2018-Feb-22 22:05N 29°14' W 021°36'0 0.0 18.9
2018-Feb-22 22:00N 29°14' W 021°36'1 0.6 19.0
2018-Feb-22 21:04N 29°14' W 021°36'0 0.0 18.9
2018-Feb-22 21:00N 29°14' W 021°36'1 0.6 18.9
2018-Feb-22 20:04N 29°13' W 021°36'0 0.0 19.0
2018-Feb-22 20:00N 29°13' W 021°36'1 0.6 19.0
2018-Feb-22 19:05N 29°13' W 021°37'0 0.0 19.1
2018-Feb-22 19:00N 29°13' W 021°37'1 0.7 19.1
2018-Feb-22 18:05N 29°13' W 021°37'0 0.0 19.1
2018-Feb-22 18:00N 29°13' W 021°37'1 0.6 19.1
2018-Feb-22 17:00N 29°12' W 021°37'1 0.6 19.0
2018-Feb-22 16:00N 29°11' W 021°37'1 0.9 19.0
2018-Feb-22 15:04N 29°11' W 021°37'0 0.0 19.0
2018-Feb-22 15:00N 29°11' W 021°37'1 1.4 19.0
2018-Feb-22 14:08N 29°10' W 021°37'0 0.0 19.0
2018-Feb-22 14:00N 29°10' W 021°37'1 0.7 19.0
2018-Feb-22 13:05N 29°09' W 021°37'0 0.0 19.0
2018-Feb-22 13:00N 29°09' W 021°37'1 0.6 19.0
2018-Feb-22 12:00N 29°08' W 021°37'1 0.7 19.0
2018-Feb-22 11:05N 29°08' W 021°37'0 0.0 19.0
2018-Feb-22 11:00N 29°08' W 021°37'0 0.0 19.0
2018-Feb-22 10:04N 29°08' W 021°37'0 0.0 19.0
2018-Feb-22 10:00N 29°08' W 021°37'1 0.6 19.0
2018-Feb-22 09:00N 29°07' W 021°37'1 0.7 19.1
2018-Feb-22 08:05N 29°07' W 021°37'0 0.0 19.0
2018-Feb-22 08:00N 29°07' W 021°37'0 0.0 19.0
2018-Feb-22 07:05N 29°07' W 021°37'0 0.0 19.0
2018-Feb-22 07:00N 29°07' W 021°37'1 0.7 19.0
2018-Feb-22 06:05N 29°06' W 021°37'0 0.0 19.1
2018-Feb-22 06:00N 29°06' W 021°37'1 0.6 19.1
2018-Feb-22 05:04N 29°05' W 021°37'1 7.9 19.1
2018-Feb-22 05:00N 29°05' W 021°38'1 0.7 19.1
2018-Feb-22 04:06N 29°05' W 021°38'1 6.0 19.1
2018-Feb-22 04:00N 29°05' W 021°38'1 0.7 19.2
2018-Feb-22 03:08N 29°05' W 021°38'0 0.0 19.1
2018-Feb-22 03:00N 29°05' W 021°38'8 0.2 19.1
2018-Feb-20 14:05N 29°05' W 021°28'0 0.0 19.2
2018-Feb-20 14:00N 29°05' W 021°28'0 0.0 19.2
2018-Feb-20 13:08N 29°05' W 021°28'0 0.0 19.3
2018-Feb-20 13:00N 29°05' W 021°28'1 0.6 19.3
2018-Feb-20 12:05N 29°05' W 021°28'0 0.0 19.2
2018-Feb-20 12:00N 29°05' W 021°28'0 0.0 19.2
2018-Feb-20 11:00N 29°05' W 021°28'1 0.8 19.1
2018-Feb-20 10:00N 29°05' W 021°27'0 0.0 19.1
2018-Feb-20 09:05N 29°05' W 021°27'0 0.0 19.1
2018-Feb-20 09:00N 29°05' W 021°27'1 0.9 19.1
2018-Feb-20 08:05N 29°06' W 021°26'0 0.0 19.3
2018-Feb-20 08:00N 29°06' W 021°26'0 0.0 19.3
2018-Feb-20 07:05N 29°06' W 021°26'0 0.0 19.3
2018-Feb-20 07:00N 29°06' W 021°26'1 0.6 19.3
2018-Feb-20 06:05N 29°06' W 021°26'0 0.0 19.3
2018-Feb-20 06:00N 29°06' W 021°26'1 0.6 19.3
2018-Feb-20 05:04N 29°07' W 021°26'0 0.0 19.3
2018-Feb-20 05:00N 29°07' W 021°26'1 0.6 19.3
2018-Feb-20 04:05N 29°07' W 021°25'0 0.0 19.3
2018-Feb-20 04:00N 29°07' W 021°25'1 0.6 19.3
2018-Feb-20 03:04N 29°07' W 021°25'0 0.0 19.4
2018-Feb-20 03:00N 29°07' W 021°25'1 0.7 19.4
2018-Feb-20 02:05N 29°07' W 021°25'0 0.0 19.4
2018-Feb-20 02:00N 29°07' W 021°25'1 0.6 19.4
2018-Feb-20 01:05N 29°07' W 021°24'0 0.0 19.4
2018-Feb-20 01:00N 29°07' W 021°24'1 0.6 19.4
2018-Feb-20 00:05N 29°07' W 021°23'1 7.2 19.4
2018-Feb-20 00:00N 29°08' W 021°23'1 0.5 19.4
2018-Feb-19 23:02N 29°08' W 021°23'0 0.0 19.4
2018-Feb-19 23:00N 29°08' W 021°23'1 0.6 19.4
2018-Feb-19 22:04N 29°08' W 021°22'0 0.0 19.4
2018-Feb-19 22:00N 29°08' W 021°22'1 0.6 19.4
2018-Feb-19 21:04N 29°08' W 021°22'0 0.0 19.4
2018-Feb-19 21:00N 29°08' W 021°22'1 0.6 19.4
2018-Feb-19 20:04N 29°08' W 021°22'0 0.0 19.4
2018-Feb-19 20:00N 29°08' W 021°22'1 0.9 19.4
2018-Feb-19 19:04N 29°09' W 021°21'0 0.0 19.4
2018-Feb-19 19:00N 29°09' W 021°21'1 0.6 19.4
2018-Feb-19 18:05N 29°09' W 021°20'0 0.0 19.4
2018-Feb-19 18:00N 29°09' W 021°20'1 0.6 19.4
2018-Feb-19 17:04N 29°09' W 021°20'1 9.0 19.4
2018-Feb-19 17:00N 29°10' W 021°20'1 0.6 19.4
2018-Feb-19 16:04N 29°10' W 021°19'0 0.0 19.4
2018-Feb-19 16:00N 29°10' W 021°19'1 0.6 19.4
2018-Feb-19 15:05N 29°10' W 021°19'0 0.0 19.4
2018-Feb-19 15:00N 29°10' W 021°19'1 0.6 19.4
2018-Feb-19 14:05N 29°10' W 021°18'0 0.0 19.4
2018-Feb-19 14:00N 29°10' W 021°18'1 0.7 19.4
2018-Feb-19 13:05N 29°10' W 021°18'0 0.0 19.3
2018-Feb-19 13:00N 29°10' W 021°18'0 0.0 19.3
2018-Feb-19 12:05N 29°10' W 021°18'1 0.5 19.2
2018-Feb-19 11:00N 29°10' W 021°17'0 0.0 19.2
2018-Feb-19 10:05N 29°10' W 021°17'0 0.0 19.1
2018-Feb-19 10:00N 29°10' W 021°17'0 0.0 19.1
2018-Feb-19 09:07N 29°10' W 021°17'0 0.0 19.1
2018-Feb-19 09:00N 29°10' W 021°17'0 0.0 19.1
2018-Feb-19 08:05N 29°10' W 021°17'0 0.0 19.0
2018-Feb-19 08:00N 29°10' W 021°17'1 0.6 19.0
2018-Feb-19 07:06N 29°10' W 021°17'0 0.0 19.0
2018-Feb-19 07:00N 29°10' W 021°17'0 0.0 19.0
2018-Feb-19 06:04N 29°10' W 021°17'0 0.0 19.0
2018-Feb-19 06:00N 29°10' W 021°17'1 0.6 19.0
2018-Feb-19 05:04N 29°10' W 021°16'0 0.0 19.0
2018-Feb-19 05:00N 29°10' W 021°16'0 0.0 19.0
2018-Feb-19 04:00N 29°10' W 021°16'1 0.6 19.0
2018-Feb-19 03:05N 29°10' W 021°16'0 0.0 19.0
2018-Feb-19 03:00N 29°10' W 021°16'0 0.0 19.0
2018-Feb-19 02:05N 29°10' W 021°16'0 0.0 19.0
2018-Feb-19 02:00N 29°10' W 021°16'1 0.6 19.0
2018-Feb-19 01:05N 29°10' W 021°15'0 0.0 19.0
2018-Feb-19 01:00N 29°10' W 021°15'0 0.0 19.0
2018-Feb-19 00:04N 29°10' W 021°15'0 0.0 19.0
2018-Feb-19 00:00N 29°10' W 021°15'1 0.7 19.0
2018-Feb-18 23:07N 29°11' W 021°15'0 0.0 19.0
2018-Feb-18 23:00N 29°11' W 021°15'0 0.0 19.0
2018-Feb-18 22:05N 29°11' W 021°15'0 0.0 19.1
2018-Feb-18 22:00N 29°11' W 021°15'1 0.6 19.1
2018-Feb-18 21:00N 29°11' W 021°15'0 0.0 19.1
2018-Feb-18 20:05N 29°11' W 021°15'1 6.3 19.1
2018-Feb-18 20:00N 29°11' W 021°16'1 0.6 19.1
2018-Feb-18 19:00N 29°12' W 021°16'1 0.6 19.1
2018-Feb-18 18:01N 29°13' W 021°16'0 0.0 19.2
2018-Feb-18 18:00N 29°13' W 021°16'0 0.0 19.2
2018-Feb-18 17:00N 29°13' W 021°16'0 0.0 19.2
2018-Feb-18 16:04N 29°13' W 021°16'0 0.0 19.2
2018-Feb-18 16:00N 29°13' W 021°16'0 0.0 19.2
2018-Feb-18 15:04N 29°13' W 021°16'0 0.0 19.2
2018-Feb-18 15:00N 29°13' W 021°16'0 0.0 19.2
2018-Feb-18 14:06N 29°13' W 021°16'0 0.0 19.2
2018-Feb-18 14:00N 29°13' W 021°16'1 0.7 19.2
2018-Feb-18 13:05N 29°13' W 021°16'0 0.0 19.1
2018-Feb-18 13:00N 29°13' W 021°16'1 0.6 19.1
2018-Feb-18 12:05N 29°13' W 021°15'0 0.0 19.1
2018-Feb-18 12:00N 29°13' W 021°15'0 0.0 19.1
2018-Feb-18 11:04N 29°13' W 021°15'0 0.0 19.0
2018-Feb-18 11:00N 29°13' W 021°15'0 0.0 19.0
2018-Feb-18 10:04N 29°13' W 021°15'0 0.0 19.0
2018-Feb-18 10:00N 29°13' W 021°15'1 0.6 19.0
2018-Feb-18 09:04N 29°13' W 021°14'1 9.0 19.0
2018-Feb-18 09:00N 29°14' W 021°14'0 0.0 19.0
2018-Feb-18 08:02N 29°14' W 021°14'0 0.0 19.0
2018-Feb-18 08:00N 29°14' W 021°14'0 0.0 19.0
2018-Feb-18 07:04N 29°14' W 021°14'1 9.0 19.0
2018-Feb-18 07:00N 29°14' W 021°14'0 0.0 19.0
2018-Feb-18 06:05N 29°14' W 021°14'0 0.0 19.0
2018-Feb-18 06:00N 29°14' W 021°14'0 0.0 19.0
2018-Feb-18 05:05N 29°14' W 021°14'0 0.0 19.0
2018-Feb-18 05:00N 29°14' W 021°14'0 0.0 19.0
2018-Feb-18 04:06N 29°14' W 021°14'0 0.0 19.0
2018-Feb-18 04:00N 29°14' W 021°14'1 0.7 19.0
2018-Feb-18 03:05N 29°15' W 021°14'0 0.0 19.1
2018-Feb-18 03:00N 29°15' W 021°14'0 0.0 19.1
2018-Feb-18 02:04N 29°15' W 021°14'0 0.0 19.1
2018-Feb-18 02:00N 29°15' W 021°14'0 0.0 19.1
2018-Feb-18 01:04N 29°15' W 021°14'0 0.0 19.1
2018-Feb-18 01:00N 29°15' W 021°14'1 0.6 19.1
2018-Feb-18 00:04N 29°15' W 021°14'1 7.9 19.1
2018-Feb-18 00:00N 29°15' W 021°14'1 0.9 19.1
2018-Feb-17 23:05N 29°16' W 021°14'0 0.0 19.1
2018-Feb-17 23:00N 29°16' W 021°14'0 0.0 19.1
2018-Feb-17 22:04N 29°16' W 021°14'0 0.0 19.1
2018-Feb-17 22:00N 29°16' W 021°14'0 0.0 19.1
2018-Feb-17 21:05N 29°16' W 021°14'0 0.0 19.2
2018-Feb-17 21:00N 29°16' W 021°14'0 0.0 19.2
2018-Feb-17 20:04N 29°16' W 021°14'1 9.0 19.2
2018-Feb-17 20:00N 29°16' W 021°14'0 0.0 19.2
2018-Feb-17 19:05N 29°16' W 021°14'0 0.0 19.2
2018-Feb-17 19:00N 29°16' W 021°14'1 0.7 19.2
2018-Feb-17 18:09N 29°16' W 021°14'1 0.5 19.3
2018-Feb-17 17:04N 29°16' W 021°13'0 0.0 19.3
2018-Feb-17 17:00N 29°16' W 021°13'0 0.0 19.3
2018-Feb-17 16:04N 29°16' W 021°13'0 0.0 19.3
2018-Feb-17 16:00N 29°16' W 021°13'1 0.6 19.3
2018-Feb-17 15:08N 29°16' W 021°13'0 0.0 19.2
2018-Feb-17 15:00N 29°16' W 021°13'1 0.6 19.2
2018-Feb-17 14:04N 29°15' W 021°13'0 0.0 19.1
2018-Feb-17 14:00N 29°15' W 021°13'1 0.5 19.1
2018-Feb-17 13:00N 29°15' W 021°12'1 0.5 19.1
2018-Feb-17 12:00N 29°15' W 021°11'1 0.7 19.0
2018-Feb-17 11:06N 29°14' W 021°11'0 0.0 19.0
2018-Feb-17 11:00N 29°14' W 021°11'1 0.6 19.0
2018-Feb-17 10:04N 29°14' W 021°11'0 0.0 19.0
2018-Feb-17 10:00N 29°14' W 021°11'0 0.0 19.0
2018-Feb-17 09:04N 29°14' W 021°11'0 0.0 19.0
2018-Feb-17 09:00N 29°14' W 021°11'0 0.0 19.0
2018-Feb-17 08:01N 29°14' W 021°11'0 0.0 18.9
2018-Feb-17 08:00N 29°14' W 021°11'1 0.6 19.0
2018-Feb-17 07:04N 29°15' W 021°11'0 0.0 19.0
2018-Feb-17 07:00N 29°15' W 021°11'1 0.6 19.0
2018-Feb-17 06:05N 29°15' W 021°10'1 6.3 19.1
2018-Feb-17 06:00N 29°15' W 021°11'1 0.5 19.1
2018-Feb-17 05:00N 29°15' W 021°10'0 0.0 19.1
2018-Feb-17 04:00N 29°15' W 021°10'1 0.9 19.2
2018-Feb-17 03:04N 29°14' W 021°10'1 9.0 19.2
2018-Feb-17 03:00N 29°15' W 021°10'1 0.6 19.2
2018-Feb-17 02:04N 29°14' W 021°10'0 0.0 19.2
2018-Feb-17 02:00N 29°14' W 021°10'1 0.5 19.2
2018-Feb-17 01:00N 29°14' W 021°09'0 0.0 19.2
2018-Feb-17 00:06N 29°14' W 021°09'0 0.0 19.2
2018-Feb-17 00:00N 29°14' W 021°09'0 0.0 19.2
2018-Feb-16 23:07N 29°14' W 021°09'0 0.0 19.2
2018-Feb-16 23:00N 29°14' W 021°09'1 0.6 19.3
2018-Feb-16 22:04N 29°14' W 021°08'0 0.0 19.3
2018-Feb-16 22:00N 29°14' W 021°08'0 0.0 19.3
2018-Feb-16 21:00N 29°14' W 021°08'1 0.5 19.4
2018-Feb-16 20:00N 29°14' W 021°08'0 0.0 19.4
2018-Feb-16 19:05N 29°14' W 021°08'0 0.0 19.4
2018-Feb-16 19:00N 29°14' W 021°08'1 0.9 19.4
2018-Feb-16 18:05N 29°15' W 021°07'0 0.0 19.4
2018-Feb-16 18:00N 29°15' W 021°07'0 0.0 19.4
2018-Feb-16 17:05N 29°15' W 021°07'0 0.0 19.4
2018-Feb-16 17:00N 29°15' W 021°07'1 0.6 19.4
2018-Feb-16 16:05N 29°15' W 021°07'0 0.0 19.4
2018-Feb-16 16:00N 29°15' W 021°07'1 0.6 19.4
2018-Feb-16 15:04N 29°15' W 021°06'0 0.0 19.4
2018-Feb-16 15:00N 29°15' W 021°06'1 0.7 19.4
2018-Feb-16 14:05N 29°14' W 021°06'1 7.2 19.4
2018-Feb-16 14:00N 29°15' W 021°06'1 0.9 19.4
2018-Feb-16 13:05N 29°14' W 021°05'0 0.0 19.4
2018-Feb-16 13:00N 29°14' W 021°05'0 0.0 19.4
2018-Feb-16 12:08N 29°14' W 021°05'0 0.0 19.3
2018-Feb-16 12:00N 29°14' W 021°05'1 0.5 19.3
2018-Feb-16 11:00N 29°14' W 021°05'0 0.0 19.2
2018-Feb-16 10:04N 29°14' W 021°05'0 0.0 19.2
2018-Feb-16 10:00N 29°14' W 021°05'1 0.5 19.2
2018-Feb-16 09:00N 29°14' W 021°04'0 0.0 19.2
2018-Feb-16 08:00N 29°14' W 021°04'1 0.6 19.2
2018-Feb-16 07:05N 29°14' W 021°04'1 7.2 19.2
2018-Feb-16 07:00N 29°15' W 021°04'0 0.0 19.2
2018-Feb-16 06:00N 29°15' W 021°04'1 0.6 19.2
2018-Feb-16 05:04N 29°15' W 021°03'0 0.0 19.2
2018-Feb-16 05:00N 29°15' W 021°03'0 0.0 19.2
2018-Feb-16 04:06N 29°15' W 021°03'0 0.0 19.2
2018-Feb-16 04:00N 29°15' W 021°03'1 0.6 19.2
2018-Feb-16 03:07N 29°15' W 021°02'0 0.0 19.2
2018-Feb-16 03:00N 29°15' W 021°02'   19.2

Dump ship's entire track history